^^
Station Historical Data
 
Daily Summary for May 20, 2018 Units:  English    Metric   Both
« Previous Day
Next Day »
Daily Weekly Monthly Yearly Custom
  Current: High: Low: Average:
Temperature: 69.3 °F 69.4 °F 41.4 °F 54.4 °F
Dew Point: 39.7 °F 43.3 °F 35.1 °F 38.6 °F
Humidity: 34% 84% 32% 58%
Wind Speed: 13.0mph 18.0mph 0.0mph 4.4mph
Wind Gust: 17.0mph 22.0mph - -
WindSE - - SE
Pressure: 30.11 in 30.23 in 30.11 in -
Precipitation: 0.00 in      
Historical Graphs
 
 
Tabular Data for May 20, 2018
Time Temperature Dew Point Pressure Wind Wind Speed Wind Gust Humidity Rainfall Rate (Hourly) solar Conditions
00:00 52.1 °F 37.8 °F 30.20 in ENE 4.0 mph 8.0 mph 58% 0.00 in 0 W/m2
00:05 52.2 °F 37.4 °F 30.20 in East 6.0 mph 7.0 mph 57% 0.00 in 0 W/m2
00:10 52.2 °F 37.4 °F 30.20 in East 6.0 mph 7.0 mph 57% 0.00 in 0 W/m2
00:15 52.2 °F 37.4 °F 30.20 in East 5.0 mph 7.0 mph 57% 0.00 in 0 W/m2
00:20 52.2 °F 37.4 °F 30.20 in ENE 4.0 mph 7.0 mph 57% 0.00 in 0 W/m2
00:25 52.1 °F 37.8 °F 30.20 in ENE 5.0 mph 7.0 mph 58% 0.00 in 0 W/m2
00:30 52.0 °F 37.7 °F 30.20 in ENE 4.0 mph 7.0 mph 58% 0.00 in 0 W/m2
00:35 51.7 °F 37.4 °F 30.21 in East 6.0 mph 7.0 mph 58% 0.00 in 0 W/m2
00:40 51.3 °F 37.4 °F 30.20 in East 6.0 mph 7.0 mph 59% 0.00 in 0 W/m2
00:45 50.9 °F 37.5 °F 30.20 in ENE 5.0 mph 7.0 mph 60% 0.00 in 0 W/m2
00:50 50.6 °F 37.2 °F 30.21 in East 5.0 mph 7.0 mph 60% 0.00 in 0 W/m2
00:55 50.3 °F 37.4 °F 30.20 in East 3.0 mph 7.0 mph 61% 0.00 in 0 W/m2
01:00 50.1 °F 37.2 °F 30.20 in East 6.0 mph 6.0 mph 61% 0.00 in 0 W/m2
01:05 50.1 °F 37.6 °F 30.20 in East 6.0 mph 7.0 mph 62% 0.00 in 0 W/m2
01:10 49.8 °F 37.3 °F 30.20 in East 6.0 mph 7.0 mph 62% 0.00 in 0 W/m2
01:15 49.8 °F 37.3 °F 30.20 in East 6.0 mph 7.0 mph 62% 0.00 in 0 W/m2
01:20 49.9 °F 37.0 °F 30.20 in ENE 4.0 mph 6.0 mph 61% 0.00 in 0 W/m2
01:25 50.2 °F 36.8 °F 30.20 in ENE 5.0 mph 7.0 mph 60% 0.00 in 0 W/m2
01:30 50.4 °F 37.0 °F 30.20 in ENE 5.0 mph 7.0 mph 60% 0.00 in 0 W/m2
01:35 50.5 °F 36.7 °F 30.20 in ENE 4.0 mph 7.0 mph 59% 0.00 in 0 W/m2
01:40 50.7 °F 36.9 °F 30.20 in ENE 4.0 mph 7.0 mph 59% 0.00 in 0 W/m2
01:45 50.8 °F 36.5 °F 30.20 in East 5.0 mph 7.0 mph 58% 0.00 in 0 W/m2
01:46 50.9 °F 36.6 °F 30.20 in East 3.0 mph 6.0 mph 58% 0.00 in 0 W/m2
01:51 50.7 °F 36.5 °F 30.20 in East 6.0 mph 7.0 mph 58% 0.00 in 0 W/m2
01:56 50.6 °F 36.8 °F 30.20 in ENE 3.0 mph 7.0 mph 59% 0.00 in 0 W/m2
02:01 50.6 °F 36.8 °F 30.20 in ENE 3.0 mph 6.0 mph 59% 0.00 in 0 W/m2
02:06 50.4 °F 36.6 °F 30.20 in ENE 4.0 mph 5.0 mph 59% 0.00 in 0 W/m2
02:11 50.4 °F 36.6 °F 30.20 in ENE 4.0 mph 5.0 mph 59% 0.00 in 0 W/m2
02:16 50.3 °F 36.5 °F 30.20 in ENE 4.0 mph 5.0 mph 59% 0.00 in 0 W/m2
02:21 49.8 °F 36.5 °F 30.20 in SW 3.0 mph 5.0 mph 60% 0.00 in 0 W/m2
02:26 47.8 °F 36.2 °F 30.20 in SW 2.0 mph 5.0 mph 64% 0.00 in 0 W/m2
02:31 46.5 °F 36.1 °F 30.20 in SW 1.0 mph 5.0 mph 67% 0.00 in 0 W/m2
02:36 45.7 °F 35.7 °F 30.20 in Calm   3.0 mph 68% 0.00 in 0 W/m2
02:41 45.3 °F 35.7 °F 30.20 in Calm   2.0 mph 69% 0.00 in 0 W/m2
02:46 45.1 °F 35.9 °F 30.20 in SW 1.0 mph 2.0 mph 70% 0.00 in 0 W/m2
02:51 45.2 °F 36.0 °F 30.20 in SW 2.0 mph 3.0 mph 70% 0.00 in 0 W/m2
02:56 45.3 °F 36.1 °F 30.20 in Calm   3.0 mph 70% 0.00 in 0 W/m2
03:01 45.3 °F 36.1 °F 30.20 in SW 2.0 mph 2.0 mph 70% 0.00 in 0 W/m2
03:06 45.4 °F 36.2 °F 30.20 in Calm   2.0 mph 70% 0.00 in 0 W/m2
03:11 45.5 °F 36.3 °F 30.20 in Calm   2.0 mph 70% 0.00 in 0 W/m2
03:16 45.7 °F 36.5 °F 30.20 in Calm   1.0 mph 70% 0.00 in 0 W/m2
03:21 46.1 °F 36.5 °F 30.20 in Calm   1.0 mph 69% 0.00 in 0 W/m2
03:26 46.5 °F 36.5 °F 30.20 in Calm   1.0 mph 68% 0.00 in 0 W/m2
03:31 46.9 °F 36.5 °F 30.20 in SW 2.0 mph 3.0 mph 67% 0.00 in 0 W/m2
03:36 46.8 °F 36.4 °F 30.20 in SW 3.0 mph 3.0 mph 67% 0.00 in 0 W/m2
03:41 46.8 °F 36.4 °F 30.19 in NE 4.0 mph 5.0 mph 67% 0.00 in 0 W/m2
03:46 46.6 °F 36.2 °F 30.19 in ENE 4.0 mph 5.0 mph 67% 0.00 in 0 W/m2
03:51 46.6 °F 36.2 °F 30.20 in ENE 4.0 mph 4.0 mph 67% 0.00 in 0 W/m2
03:56 46.5 °F 36.1 °F 30.20 in ENE 3.0 mph 4.0 mph 67% 0.00 in 0 W/m2
04:01 46.5 °F 36.1 °F 30.20 in East 3.0 mph 5.0 mph 67% 0.00 in 0 W/m2
04:06 45.9 °F 35.9 °F 30.20 in ESE 3.0 mph 5.0 mph 68% 0.00 in 0 W/m2
04:11 45.2 °F 35.6 °F 30.20 in ESE 3.0 mph 5.0 mph 69% 0.00 in 0 W/m2
04:16 44.7 °F 35.5 °F 30.20 in ESE 1.0 mph 4.0 mph 70% 0.00 in 0 W/m2
04:21 43.9 °F 35.1 °F 30.20 in ESE 1.0 mph 3.0 mph 71% 0.00 in 0 W/m2
04:26 43.3 °F 35.2 °F 30.20 in Calm   2.0 mph 73% 0.00 in 0 W/m2
04:31 43.2 °F 35.5 °F 30.20 in ESE 1.0 mph 1.0 mph 74% 0.00 in 0 W/m2
04:36 43.2 °F 35.8 °F 30.20 in ESE 3.0 mph 3.0 mph 75% 0.00 in 0 W/m2
04:41 43.5 °F 35.8 °F 30.21 in SE 3.0 mph 3.0 mph 74% 0.00 in 0 W/m2
04:46 43.6 °F 36.2 °F 30.21 in SE 3.0 mph 4.0 mph 75% 0.00 in 0 W/m2
04:51 43.6 °F 36.2 °F 30.21 in SE 4.0 mph 4.0 mph 75% 0.00 in 0 W/m2
04:56 43.7 °F 36.3 °F 30.21 in SE 3.0 mph 4.0 mph 75% 0.00 in 0 W/m2
05:01 43.7 °F 36.0 °F 30.21 in SE 3.0 mph 4.0 mph 74% 0.00 in 0 W/m2
05:06 43.8 °F 36.0 °F 30.21 in SE 2.0 mph 4.0 mph 74% 0.00 in 0 W/m2
05:11 43.2 °F 35.5 °F 30.21 in SE 1.0 mph 4.0 mph 74% 0.00 in 0 W/m2
05:16 42.6 °F 35.2 °F 30.22 in SE 1.0 mph 2.0 mph 75% 0.00 in 0 W/m2
05:21 42.3 °F 35.3 °F 30.21 in SE 1.0 mph 2.0 mph 76% 0.00 in 0 W/m2
05:26 42.2 °F 35.2 °F 30.22 in Calm   2.0 mph 76% 0.00 in 0 W/m2
05:31 42.0 °F 35.3 °F 30.22 in SE 2.0 mph 3.0 mph 77% 0.00 in 0 W/m2
05:36 41.8 °F 35.1 °F 30.22 in SE 2.0 mph 3.0 mph 77% 0.00 in 0 W/m2
05:41 41.5 °F 35.2 °F 30.22 in SE 1.0 mph 3.0 mph 78% 0.00 in 0 W/m2
05:46 41.5 °F 35.2 °F 30.22 in SE 1.0 mph 2.0 mph 78% 0.00 in 0 W/m2
05:51 41.4 °F 35.4 °F 30.22 in SE 1.0 mph 2.0 mph 79% 0.00 in 0 W/m2
05:56 41.4 °F 35.4 °F 30.22 in SE 2.0 mph 2.0 mph 79% 0.00 in 0 W/m2
06:01 41.5 °F 35.5 °F 30.22 in SE 2.0 mph 2.0 mph 79% 0.00 in 5 W/m2
06:06 41.6 °F 35.6 °F 30.22 in SE 1.0 mph 2.0 mph 79% 0.00 in 7 W/m2
06:11 41.7 °F 35.7 °F 30.22 in SE 2.0 mph 2.0 mph 79% 0.00 in 9 W/m2
06:16 41.9 °F 35.5 °F 30.22 in SE 2.0 mph 2.0 mph 78% 0.00 in 12 W/m2
06:21 42.1 °F 35.7 °F 30.22 in ENE 2.0 mph 3.0 mph 78% 0.00 in 14 W/m2
06:26 42.1 °F 35.7 °F 30.22 in North 1.0 mph 3.0 mph 78% 0.00 in 16 W/m2
06:31 42.5 °F 36.1 °F 30.22 in NNE 2.0 mph 3.0 mph 78% 0.00 in 19 W/m2
06:36 43.1 °F 36.4 °F 30.22 in Calm   2.0 mph 77% 0.00 in 21 W/m2
06:41 43.3 °F 36.6 °F 30.23 in NNE 1.0 mph 2.0 mph 77% 0.00 in 23 W/m2
06:47 43.6 °F 36.5 °F 30.22 in NNE 1.0 mph 2.0 mph 76% 0.00 in 25 W/m2
06:52 43.7 °F 36.3 °F 30.23 in Calm   2.0 mph 75% 0.00 in 26 W/m2
06:57 43.5 °F 36.4 °F 30.22 in Calm   2.0 mph 76% 0.00 in 28 W/m2
07:02 43.6 °F 36.5 °F 30.22 in NNE 1.0 mph 2.0 mph 76% 0.00 in 30 W/m2
07:07 43.7 °F 37.0 °F 30.22 in NNE 2.0 mph 2.0 mph 77% 0.00 in 32 W/m2
07:12 43.7 °F 37.3 °F 30.22 in North 2.0 mph 2.0 mph 78% 0.00 in 33 W/m2
07:13 43.7 °F 37.6 °F 30.22 in North 2.0 mph 3.0 mph 79% 0.00 in 33 W/m2
07:18 43.8 °F 37.7 °F 30.22 in Calm   3.0 mph 79% 0.00 in 35 W/m2
07:23 43.8 °F 38.0 °F 30.22 in Calm   2.0 mph 80% 0.00 in 37 W/m2
07:28 43.6 °F 37.8 °F 30.22 in Calm     80% 0.00 in 39 W/m2
07:33 43.5 °F 38.1 °F 30.22 in Calm   1.0 mph 81% 0.00 in 40 W/m2
07:38 43.8 °F 39.0 °F 30.22 in North 1.0 mph 2.0 mph 83% 0.00 in 42 W/m2
07:43 44.3 °F 39.8 °F 30.22 in North 1.0 mph 2.0 mph 84% 0.00 in 199 W/m2
07:48 44.7 °F 39.9 °F 30.22 in North 2.0 mph 2.0 mph 83% 0.00 in 220 W/m2
07:53 45.6 °F 40.4 °F 30.22 in North 2.0 mph 3.0 mph 82% 0.00 in 241 W/m2
07:58 46.7 °F 40.9 °F 30.22 in North 1.0 mph 3.0 mph 80% 0.00 in 258 W/m2
08:03 47.7 °F 40.8 °F 30.22 in North 1.0 mph 2.0 mph 77% 0.00 in 272 W/m2
08:08 48.5 °F 40.6 °F 30.22 in Calm   2.0 mph 74% 0.00 in 287 W/m2
08:13 49.2 °F 40.2 °F 30.22 in NW 1.0 mph 3.0 mph 71% 0.00 in 299 W/m2
08:18 49.9 °F 40.9 °F 30.22 in Calm   3.0 mph 71% 0.00 in 315 W/m2
08:23 50.6 °F 41.5 °F 30.22 in NNW 1.0 mph 2.0 mph 71% 0.00 in 330 W/m2
08:28 51.3 °F 41.5 °F 30.22 in Calm   2.0 mph 69% 0.00 in 345 W/m2
08:33 52.4 °F 41.4 °F 30.22 in Calm   2.0 mph 66% 0.00 in 360 W/m2
08:38 53.1 °F 41.6 °F 30.22 in NNW 1.0 mph 2.0 mph 65% 0.00 in 376 W/m2
08:43 53.2 °F 41.3 °F 30.22 in West 2.0 mph 2.0 mph 64% 0.00 in 392 W/m2
08:48 53.4 °F 40.7 °F 30.22 in SW 2.0 mph 2.0 mph 62% 0.00 in 403 W/m2
08:53 53.8 °F 40.2 °F 30.22 in WSW 3.0 mph 3.0 mph 60% 0.00 in 418 W/m2
08:58 53.8 °F 40.7 °F 30.22 in WSW 1.0 mph 4.0 mph 61% 0.00 in 432 W/m2
09:03 54.2 °F 41.0 °F 30.22 in WSW 1.0 mph 4.0 mph 61% 0.00 in 448 W/m2
09:08 54.5 °F 41.7 °F 30.22 in WSW 1.0 mph 2.0 mph 62% 0.00 in 464 W/m2
09:13 55.3 °F 42.5 °F 30.22 in WSW 2.0 mph 2.0 mph 62% 0.00 in 478 W/m2
09:18 55.7 °F 42.0 °F 30.22 in SW 4.0 mph 4.0 mph 60% 0.00 in 492 W/m2
09:23 56.5 °F 42.3 °F 30.23 in SSE 2.0 mph 4.0 mph 59% 0.00 in 506 W/m2
09:28 57.3 °F 42.6 °F 30.23 in SSW 2.0 mph 4.0 mph 58% 0.00 in 519 W/m2
09:33 58.2 °F 42.6 °F 30.23 in South 6.0 mph 8.0 mph 56% 0.00 in 534 W/m2
09:38 59.0 °F 42.4 °F 30.23 in South 4.0 mph 8.0 mph 54% 0.00 in 547 W/m2
09:43 59.4 °F 41.8 °F 30.23 in SSE 4.0 mph 8.0 mph 52% 0.00 in 561 W/m2
09:48 59.6 °F 41.9 °F 30.23 in South 5.0 mph 8.0 mph 52% 0.00 in 575 W/m2
09:53 59.8 °F 40.6 °F 30.23 in SSE 5.0 mph 9.0 mph 49% 0.00 in 589 W/m2
09:58 59.9 °F 40.7 °F 30.23 in SE 5.0 mph 9.0 mph 49% 0.00 in 601 W/m2
10:03 60.1 °F 40.9 °F 30.23 in SSW 7.0 mph 9.0 mph 49% 0.00 in 613 W/m2
10:08 60.4 °F 40.6 °F 30.23 in South 6.0 mph 9.0 mph 48% 0.00 in 628 W/m2
10:13 60.6 °F 41.3 °F 30.22 in South 7.0 mph 9.0 mph 49% 0.00 in 640 W/m2
10:18 60.8 °F 41.0 °F 30.22 in SSW 7.0 mph 9.0 mph 48% 0.00 in 654 W/m2
10:23 61.2 °F 40.8 °F 30.22 in South 6.0 mph 9.0 mph 47% 0.00 in 664 W/m2
10:28 61.5 °F 40.5 °F 30.23 in South 6.0 mph 9.0 mph 46% 0.00 in 679 W/m2
10:33 61.5 °F 39.9 °F 30.22 in SSE 5.0 mph 9.0 mph 45% 0.00 in 687 W/m2
10:38 61.6 °F 39.5 °F 30.22 in SE 4.0 mph 9.0 mph 44% 0.00 in 700 W/m2
10:43 61.6 °F 41.2 °F 30.22 in SSE 9.0 mph 11.0 mph 47% 0.00 in 712 W/m2
10:48 61.9 °F 40.3 °F 30.22 in South 6.0 mph 11.0 mph 45% 0.00 in 722 W/m2
10:53 61.9 °F 40.9 °F 30.22 in South 7.0 mph 9.0 mph 46% 0.00 in 733 W/m2
10:58 62.1 °F 40.5 °F 30.22 in South 5.0 mph 9.0 mph 45% 0.00 in 744 W/m2
11:03 62.2 °F 41.2 °F 30.22 in SE 4.0 mph 12.0 mph 46% 0.00 in 752 W/m2
11:08 62.3 °F 39.5 °F 30.22 in SSE 4.0 mph 12.0 mph 43% 0.00 in 745 W/m2
11:13 62.0 °F 39.2 °F 30.22 in SE 3.0 mph 12.0 mph 43% 0.00 in 712 W/m2
11:18 62.3 °F 39.5 °F 30.22 in SSE 6.0 mph 10.0 mph 43% 0.00 in 682 W/m2
11:23 62.4 °F 40.2 °F 30.21 in ESE 11.0 mph 11.0 mph 44% 0.00 in 645 W/m2
11:28 62.8 °F 41.7 °F 30.22 in SE 5.0 mph 12.0 mph 46% 0.00 in 635 W/m2
11:33 63.2 °F 39.7 °F 30.21 in ESE 12.0 mph 12.0 mph 42% 0.00 in 647 W/m2
11:38 63.1 °F 39.6 °F 30.21 in SE 10.0 mph 13.0 mph 42% 0.00 in 687 W/m2
11:43 63.2 °F 40.9 °F 30.21 in South 4.0 mph 13.0 mph 44% 0.00 in 742 W/m2
11:48 63.7 °F 41.4 °F 30.21 in SSE 6.0 mph 11.0 mph 44% 0.00 in 802 W/m2
11:53 63.8 °F 41.5 °F 30.21 in South 5.0 mph 12.0 mph 44% 0.00 in 844 W/m2
11:58 64.1 °F 40.5 °F 30.21 in ESE 9.0 mph 14.0 mph 42% 0.00 in 853 W/m2
12:03 63.9 °F 39.1 °F 30.21 in SE 7.0 mph 14.0 mph 40% 0.00 in 858 W/m2
12:08 63.9 °F 40.3 °F 30.21 in SSE 8.0 mph 13.0 mph 42% 0.00 in 868 W/m2
12:13 64.4 °F 38.9 °F 30.20 in SE 2.0 mph 12.0 mph 39% 0.00 in 874 W/m2
12:18 64.8 °F 39.9 °F 30.20 in SE 6.0 mph 14.0 mph 40% 0.00 in 879 W/m2
12:23 64.9 °F 39.3 °F 30.20 in SSE 8.0 mph 14.0 mph 39% 0.00 in 886 W/m2
12:28 64.9 °F 41.2 °F 30.20 in SE 10.0 mph 13.0 mph 42% 0.00 in 888 W/m2
12:33 65.1 °F 39.5 °F 30.20 in SSE 10.0 mph 13.0 mph 39% 0.00 in 895 W/m2
12:38 65.5 °F 39.2 °F 30.20 in SSE 6.0 mph 13.0 mph 38% 0.00 in 898 W/m2
12:43 65.3 °F 40.3 °F 30.20 in South 7.0 mph 14.0 mph 40% 0.00 in 907 W/m2
12:48 65.3 °F 39.0 °F 30.20 in SSE 10.0 mph 14.0 mph 38% 0.00 in 912 W/m2
12:53 65.2 °F 40.3 °F 30.19 in SSE 8.0 mph 14.0 mph 40% 0.00 in 912 W/m2
12:58 65.5 °F 40.5 °F 30.19 in SSE 8.0 mph 13.0 mph 40% 0.00 in 916 W/m2
13:03 66.1 °F 41.1 °F 30.19 in SSE 7.0 mph 11.0 mph 40% 0.00 in 923 W/m2
13:08 66.4 °F 42.0 °F 30.19 in ESE 9.0 mph 13.0 mph 41% 0.00 in 921 W/m2
13:13 66.2 °F 40.5 °F 30.19 in SSE 7.0 mph 18.0 mph 39% 0.00 in 925 W/m2
13:18 65.6 °F 40.6 °F 30.18 in SE 11.0 mph 18.0 mph 40% 0.00 in 926 W/m2
13:23 65.8 °F 40.1 °F 30.18 in ESE 8.0 mph 16.0 mph 39% 0.00 in 928 W/m2
13:24 65.7 °F 40.1 °F 30.18 in ESE 9.0 mph 16.0 mph 39% 0.00 in 928 W/m2
13:29 65.7 °F 40.7 °F 30.18 in SSE 6.0 mph 16.0 mph 40% 0.00 in 928 W/m2
13:34 66.1 °F 41.1 °F 30.18 in SE 8.0 mph 16.0 mph 40% 0.00 in 932 W/m2
13:39 66.1 °F 41.1 °F 30.18 in SSE 11.0 mph 16.0 mph 40% 0.00 in 935 W/m2
13:44 66.4 °F 40.0 °F 30.17 in SSE 6.0 mph 16.0 mph 38% 0.00 in 940 W/m2
13:49 66.3 °F 43.1 °F 30.17 in SE 12.0 mph 17.0 mph 43% 0.00 in 942 W/m2
13:54 66.3 °F 41.9 °F 30.17 in ENE 3.0 mph 17.0 mph 41% 0.00 in 944 W/m2
13:59 66.8 °F 39.7 °F 30.16 in SE 7.0 mph 14.0 mph 37% 0.00 in 942 W/m2
14:04 67.3 °F 40.1 °F 30.16 in SSE 16.0 mph 19.0 mph 37% 0.00 in 944 W/m2
14:09 66.9 °F 39.8 °F 30.16 in SE 8.0 mph 19.0 mph 37% 0.00 in 942 W/m2
14:14 67.2 °F 42.0 °F 30.15 in SE 9.0 mph 19.0 mph 40% 0.00 in 939 W/m2
14:19 67.2 °F 41.4 °F 30.15 in SE 5.0 mph 16.0 mph 39% 0.00 in 935 W/m2
14:24 67.4 °F 40.2 °F 30.15 in East 7.0 mph 14.0 mph 37% 0.00 in 935 W/m2
14:29 67.9 °F 43.3 °F 30.15 in SE 6.0 mph 14.0 mph 41% 0.00 in 937 W/m2
14:34 67.9 °F 40.7 °F 30.14 in ESE 3.0 mph 14.0 mph 37% 0.00 in 932 W/m2
14:39 67.7 °F 39.8 °F 30.14 in ESE 3.0 mph 13.0 mph 36% 0.00 in 926 W/m2
14:44 67.8 °F 41.3 °F 30.14 in SSE 10.0 mph 16.0 mph 38% 0.00 in 923 W/m2
14:49 68.2 °F 40.2 °F 30.13 in SE 7.0 mph 16.0 mph 36% 0.00 in 916 W/m2
14:54 68.5 °F 40.5 °F 30.13 in ESE 9.0 mph 14.0 mph 36% 0.00 in 909 W/m2
14:59 68.5 °F 41.2 °F 30.13 in SSE 12.0 mph 14.0 mph 37% 0.00 in 905 W/m2
15:04 68.7 °F 39.2 °F 30.13 in South 5.0 mph 13.0 mph 34% 0.00 in 898 W/m2
15:09 68.9 °F 40.8 °F 30.13 in ESE 8.0 mph 15.0 mph 36% 0.00 in 891 W/m2
15:14 69.1 °F 38.0 °F 30.12 in ENE 9.0 mph 16.0 mph 32% 0.00 in 882 W/m2
15:19 68.9 °F 40.8 °F 30.12 in SE 11.0 mph 16.0 mph 36% 0.00 in 879 W/m2
15:24 68.9 °F 39.4 °F 30.12 in SE 13.0 mph 17.0 mph 34% 0.00 in 865 W/m2
15:29 68.9 °F 40.8 °F 30.12 in SSE 10.0 mph 17.0 mph 36% 0.00 in 865 W/m2
15:34 69.4 °F 39.8 °F 30.12 in East 10.0 mph 17.0 mph 34% 0.00 in 856 W/m2
15:39 69.3 °F 40.5 °F 30.11 in SE 9.0 mph 17.0 mph 35% 0.00 in 849 W/m2
15:44 69.3 °F 39.7 °F 30.11 in SSE 18.0 mph 22.0 mph 34% 0.00 in 842 W/m2
15:49 69.4 °F 39.8 °F 30.11 in SSE 11.0 mph 22.0 mph 34% 0.00 in 837 W/m2
15:54 69.2 °F 41.8 °F 30.11 in SE 9.0 mph 21.0 mph 37% 0.00 in 809 W/m2
15:59 69.3 °F 39.7 °F 30.11 in SE 13.0 mph 17.0 mph 34% 0.00 in 807 W/m2
Bismarck, North Dakota, USA
Compliments of Weather Underground - 4 mb